createdAt,value
2023-04-08T00:00:29.694Z,16.93
2023-04-08T00:02:56.557Z,16.73
2023-04-08T00:05:23.769Z,17.93
2023-04-08T00:07:51.224Z,17.37
2023-04-08T00:10:18.408Z,18.97
2023-04-08T00:12:45.470Z,17.20
2023-04-08T00:15:12.542Z,17.27
2023-04-08T00:17:39.286Z,16.87
2023-04-08T00:20:06.808Z,17.67
2023-04-08T00:22:33.891Z,16.70
2023-04-08T00:25:00.758Z,17.20
2023-04-08T00:27:27.921Z,17.17
2023-04-08T00:29:54.567Z,18.37
2023-04-08T00:32:21.577Z,17.73
2023-04-08T00:34:48.332Z,18.07
2023-04-08T00:37:15.020Z,18.43
2023-04-08T00:39:41.726Z,17.87
2023-04-08T00:42:08.448Z,16.80
2023-04-08T00:44:35.514Z,18.83
2023-04-08T00:47:02.691Z,17.97
2023-04-08T00:49:31.369Z,17.23
2023-04-08T00:51:59.460Z,17.67
2023-04-08T00:54:26.490Z,18.20
2023-04-08T00:56:53.268Z,18.43
2023-04-08T00:59:20.354Z,20.53
2023-04-08T01:02:23.710Z,18.53
2023-04-08T01:05:07.061Z,18.57
2023-04-08T01:07:49.243Z,19.60
2023-04-08T01:10:22.148Z,18.60
2023-04-08T01:12:53.240Z,17.73
2023-04-08T01:15:20.958Z,18.53
2023-04-08T01:17:50.345Z,19.23
2023-04-08T01:20:18.476Z,20.53
2023-04-08T01:23:01.388Z,18.60
2023-04-08T01:25:32.253Z,19.00
2023-04-08T01:28:01.841Z,20.23
2023-04-08T01:30:30.635Z,18.53
2023-04-08T01:32:58.899Z,18.73
2023-04-08T01:35:26.145Z,18.37
2023-04-08T01:37:55.248Z,18.00
2023-04-08T01:40:22.212Z,17.93
2023-04-08T01:42:50.885Z,18.10
2023-04-08T01:45:18.270Z,19.70
2023-04-08T01:47:49.439Z,17.93
2023-04-08T01:50:17.214Z,17.60
2023-04-08T01:52:46.116Z,19.67
2023-04-08T01:55:12.888Z,19.03
2023-04-08T01:57:41.631Z,17.33
2023-04-08T02:00:11.044Z,19.57
2023-04-08T02:02:38.888Z,20.07
2023-04-08T02:05:06.159Z,18.40
2023-04-08T02:07:32.968Z,17.93
2023-04-08T02:10:00.125Z,18.20
2023-04-08T02:12:28.231Z,18.80
2023-04-08T02:14:55.449Z,20.07
2023-04-08T02:17:38.575Z,19.00
2023-04-08T02:20:10.997Z,20.60
2023-04-08T02:22:50.626Z,19.47
2023-04-08T02:25:21.694Z,19.40
2023-04-08T02:27:49.249Z,19.80
2023-04-08T02:30:17.340Z,19.80
2023-04-08T02:32:45.698Z,21.03
2023-04-08T02:35:13.109Z,20.10
2023-04-08T02:37:40.364Z,20.80
2023-04-08T02:40:29.063Z,21.03
2023-04-08T02:42:56.532Z,20.50
2023-04-08T02:45:25.647Z,21.63
2023-04-08T02:47:52.868Z,20.60
2023-04-08T02:50:20.019Z,19.33
2023-04-08T02:52:46.711Z,20.90
2023-04-08T02:55:13.402Z,20.70
2023-04-08T02:57:42.098Z,21.47
2023-04-08T03:00:09.960Z,21.57
2023-04-08T03:02:37.189Z,22.17
2023-04-08T03:05:05.527Z,22.27
2023-04-08T03:07:33.171Z,22.23
2023-04-08T03:10:00.084Z,22.17
2023-04-08T03:12:29.727Z,21.40
2023-04-08T03:14:56.414Z,20.33
2023-04-08T03:17:23.557Z,21.77
2023-04-08T03:19:50.745Z,20.33
2023-04-08T03:22:17.844Z,24.17
2023-04-08T03:24:44.496Z,20.30
2023-04-08T03:27:12.616Z,20.43
2023-04-08T03:29:39.912Z,22.90
2023-04-08T03:32:07.185Z,23.83
2023-04-08T03:34:37.081Z,21.73
2023-04-08T03:37:03.812Z,20.80
2023-04-08T03:39:31.253Z,22.63
2023-04-08T03:41:59.852Z,21.27
2023-04-08T03:44:27.283Z,21.73
2023-04-08T03:46:53.996Z,23.60
2023-04-08T03:49:21.199Z,22.33
2023-04-08T03:51:48.295Z,27.33
2023-04-08T03:54:15.633Z,25.40
2023-04-08T03:56:42.367Z,23.13
2023-04-08T03:59:09.461Z,23.20
2023-04-08T04:01:36.185Z,23.00
2023-04-08T04:04:03.535Z,22.97
2023-04-08T04:06:31.083Z,22.37
2023-04-08T04:08:57.740Z,22.80
2023-04-08T04:11:24.865Z,24.97
2023-04-08T04:13:52.029Z,23.00
2023-04-08T04:16:19.192Z,22.97
2023-04-08T04:18:46.370Z,22.30
2023-04-08T04:21:13.488Z,21.83
2023-04-08T04:23:40.616Z,22.30
2023-04-08T04:26:10.875Z,21.87
2023-04-08T04:28:38.194Z,23.20
2023-04-08T04:31:05.330Z,24.87
2023-04-08T04:33:32.039Z,22.37
2023-04-08T04:35:59.218Z,23.70
2023-04-08T04:38:27.064Z,23.50
2023-04-08T04:40:53.875Z,24.93
2023-04-08T04:43:20.960Z,25.13
2023-04-08T04:45:47.670Z,24.97
2023-04-08T04:48:14.821Z,25.23
2023-04-08T04:50:41.913Z,25.57
2023-04-08T04:53:08.968Z,25.53
2023-04-08T04:55:38.095Z,23.07
2023-04-08T04:58:06.601Z,26.57
2023-04-08T05:00:33.311Z,24.77
2023-04-08T05:03:00.547Z,26.70
2023-04-08T05:05:27.306Z,25.37
2023-04-08T05:07:54.503Z,28.27
2023-04-08T05:10:21.392Z,26.57
2023-04-08T05:12:48.457Z,27.43
2023-04-08T05:15:15.779Z,26.47
2023-04-08T05:17:42.913Z,25.13
2023-04-08T05:20:09.857Z,26.63
2023-04-08T05:22:37.049Z,26.07
2023-04-08T05:25:04.304Z,26.43
2023-04-08T05:27:31.403Z,27.13
2023-04-08T05:29:58.043Z,29.23
2023-04-08T05:32:25.162Z,24.70
2023-04-08T05:34:51.897Z,26.30
2023-04-08T05:37:18.981Z,25.20
2023-04-08T05:39:46.299Z,24.47
2023-04-08T05:42:13.914Z,26.30
2023-04-08T05:44:43.784Z,26.93
2023-04-08T05:47:10.727Z,25.47
2023-04-08T05:49:37.392Z,26.40
2023-04-08T05:52:04.108Z,27.10
2023-04-08T05:54:30.802Z,26.00
2023-04-08T05:56:57.519Z,26.67
2023-04-08T05:59:24.302Z,27.13
2023-04-08T06:01:51.199Z,26.17
2023-04-08T06:04:18.071Z,25.80
2023-04-08T06:06:45.027Z,24.30
2023-04-08T06:09:11.781Z,28.47
2023-04-08T06:11:38.428Z,26.60
2023-04-08T06:14:05.243Z,25.83
2023-04-08T06:16:32.316Z,26.43
2023-04-08T06:18:59.135Z,27.17
2023-04-08T06:21:26.566Z,24.83
2023-04-08T06:23:53.442Z,24.77
2023-04-08T06:26:20.135Z,25.27
2023-04-08T06:28:46.808Z,24.13
2023-04-08T06:31:13.519Z,24.60
2023-04-08T06:33:40.301Z,25.57
2023-04-08T06:36:08.036Z,24.67
2023-04-08T06:38:35.195Z,23.97
2023-04-08T06:41:08.596Z,26.00
2023-04-08T06:43:36.562Z,23.47
2023-04-08T06:46:03.673Z,23.33
2023-04-08T06:48:30.894Z,22.63
2023-04-08T06:50:58.621Z,21.53
2023-04-08T06:53:26.107Z,21.57
2023-04-08T06:55:53.013Z,20.67
2023-04-08T06:58:19.731Z,21.37
2023-04-08T07:00:47.263Z,22.17
2023-04-08T07:03:14.143Z,22.03
2023-04-08T07:05:42.102Z,22.90
2023-04-08T07:08:09.483Z,22.97
2023-04-08T07:10:36.371Z,24.43
2023-04-08T07:13:03.457Z,25.07
2023-04-08T07:15:30.275Z,23.87
2023-04-08T07:17:58.660Z,22.53
2023-04-08T07:20:26.128Z,21.50
2023-04-08T07:22:52.893Z,21.67
2023-04-08T07:25:19.678Z,20.13
2023-04-08T07:27:46.490Z,22.03
2023-04-08T07:30:13.242Z,22.23
2023-04-08T07:32:40.205Z,22.70
2023-04-08T07:35:07.165Z,20.23
2023-04-08T07:37:33.939Z,21.30
2023-04-08T07:40:00.838Z,24.17
2023-04-08T07:42:27.634Z,23.30
2023-04-08T07:44:54.367Z,21.70
2023-04-08T07:47:21.122Z,20.53
2023-04-08T07:49:48.415Z,23.47
2023-04-08T07:52:15.684Z,22.07
2023-04-08T07:54:42.471Z,23.10
2023-04-08T07:57:09.126Z,23.07
2023-04-08T07:59:36.185Z,21.47
2023-04-08T08:02:03.351Z,23.53
2023-04-08T08:04:30.278Z,21.83
2023-04-08T08:06:57.148Z,22.43
2023-04-08T08:09:23.934Z,21.90
2023-04-08T08:11:50.769Z,21.07
2023-04-08T08:14:17.525Z,21.57
2023-04-08T08:16:44.618Z,22.43
2023-04-08T08:19:12.349Z,22.20
2023-04-08T08:21:39.606Z,22.93
2023-04-08T08:24:06.924Z,22.90
2023-04-08T08:26:37.097Z,22.47
2023-04-08T08:29:04.871Z,24.53
2023-04-08T08:31:31.690Z,24.90
2023-04-08T08:33:58.365Z,24.30
2023-04-08T08:36:25.030Z,25.57
2023-04-08T08:38:53.431Z,25.60
2023-04-08T08:41:23.182Z,23.57
2023-04-08T08:43:50.471Z,23.70
2023-04-08T08:46:19.165Z,25.73
2023-04-08T08:48:46.396Z,25.80
2023-04-08T08:51:13.900Z,24.13
2023-04-08T08:53:45.431Z,25.77
2023-04-08T08:58:42.532Z,24.80
2023-04-08T09:01:32.281Z,26.03
2023-04-08T09:04:11.490Z,25.57
2023-04-08T09:06:39.385Z,25.83
2023-04-08T09:09:10.183Z,24.37
2023-04-08T09:11:42.567Z,24.53
2023-04-08T09:14:25.034Z,25.37
2023-04-08T09:16:52.870Z,25.87
2023-04-08T09:19:20.324Z,25.20
2023-04-08T09:22:08.613Z,24.57
2023-04-08T09:24:37.080Z,24.97
2023-04-08T09:27:05.576Z,27.10
2023-04-08T09:29:35.254Z,25.87
2023-04-08T09:32:03.602Z,29.70
2023-04-08T09:34:32.377Z,28.53
2023-04-08T09:36:59.097Z,28.13
2023-04-08T09:39:25.956Z,30.03
2023-04-08T09:41:53.087Z,31.27
2023-04-08T09:44:21.744Z,30.93
2023-04-08T09:46:52.492Z,32.43
2023-04-08T09:49:33.856Z,32.93
2023-04-08T09:52:20.969Z,32.40
2023-04-08T09:54:53.536Z,34.10
2023-04-08T09:57:35.141Z,31.77
2023-04-08T10:00:09.815Z,33.50
2023-04-08T10:03:00.136Z,32.87
2023-04-08T10:05:27.890Z,31.53
2023-04-08T10:07:56.553Z,31.77
2023-04-08T10:10:23.871Z,31.97
2023-04-08T10:12:51.340Z,33.17
2023-04-08T10:15:28.012Z,33.03
2023-04-08T10:17:56.820Z,33.13
2023-04-08T10:20:38.662Z,32.80
2023-04-08T10:23:13.958Z,34.83
2023-04-08T10:25:41.999Z,31.13
2023-04-08T10:28:11.755Z,29.80
2023-04-08T10:30:38.395Z,29.83
2023-04-08T10:33:12.171Z,28.60
2023-04-08T10:35:47.538Z,29.30
2023-04-08T10:38:17.749Z,28.70
2023-04-08T10:40:45.922Z,30.53
2023-04-08T10:43:14.111Z,29.97
2023-04-08T10:45:41.957Z,30.47
2023-04-08T10:48:17.799Z,30.47
2023-04-08T10:50:58.069Z,27.37
2023-04-08T10:53:31.761Z,30.47
2023-04-08T10:56:08.000Z,29.03
2023-04-08T10:58:56.579Z,27.87
2023-04-08T11:01:23.424Z,29.13
2023-04-08T11:03:50.673Z,29.43
2023-04-08T11:06:18.248Z,27.90
2023-04-08T11:08:45.118Z,28.37
2023-04-08T11:11:12.251Z,27.77
2023-04-08T11:13:51.913Z,26.00
2023-04-08T11:16:20.888Z,24.17
2023-04-08T11:18:48.104Z,25.70
2023-04-08T11:21:16.724Z,25.50
2023-04-08T11:23:49.714Z,24.93
2023-04-08T11:26:16.966Z,25.00
2023-04-08T11:28:45.497Z,23.77
2023-04-08T11:31:13.525Z,26.30
2023-04-08T11:33:48.878Z,27.17
2023-04-08T11:36:18.282Z,27.20
2023-04-08T11:38:45.484Z,25.23
2023-04-08T11:41:12.192Z,24.63
2023-04-08T11:43:41.015Z,23.07
2023-04-08T11:46:12.395Z,21.70
2023-04-08T11:48:39.751Z,25.07
2023-04-08T11:51:10.558Z,27.17
2023-04-08T11:53:40.058Z,26.93
2023-04-08T11:56:21.305Z,27.97
2023-04-08T11:58:48.268Z,25.40
2023-04-08T12:01:15.931Z,26.63
2023-04-08T12:04:02.455Z,25.00
2023-04-08T12:06:29.710Z,25.87
2023-04-08T12:08:57.176Z,24.63
2023-04-08T12:11:24.194Z,25.93
2023-04-08T12:13:51.310Z,26.03
2023-04-08T12:16:19.169Z,25.47
2023-04-08T12:18:46.813Z,21.37
2023-04-08T12:21:13.616Z,20.57
2023-04-08T12:23:40.582Z,18.83
2023-04-08T12:26:07.992Z,19.43
2023-04-08T12:28:35.423Z,19.27
2023-04-08T12:31:02.955Z,22.80
2023-04-08T12:33:30.603Z,23.40
2023-04-08T12:36:00.822Z,21.30
2023-04-08T12:38:27.691Z,17.67
2023-04-08T12:40:55.239Z,15.70
2023-04-08T12:43:23.529Z,19.97
2023-04-08T12:45:50.679Z,22.50
2023-04-08T12:48:17.784Z,23.23
2023-04-08T12:50:44.737Z,24.23
2023-04-08T12:53:11.500Z,24.43
2023-04-08T12:55:38.284Z,24.10
2023-04-08T12:58:06.036Z,24.63
2023-04-08T13:00:33.234Z,22.80
2023-04-08T13:03:00.053Z,21.80
2023-04-08T13:05:41.862Z,18.00
2023-04-08T13:08:10.735Z,12.87
2023-04-08T13:10:37.513Z,12.60
2023-04-08T13:13:04.372Z,9.87
2023-04-08T13:15:31.186Z,10.37
2023-04-08T13:17:58.353Z,10.37
2023-04-08T13:20:26.283Z,10.57
2023-04-08T13:22:53.594Z,10.60
2023-04-08T13:25:21.045Z,11.23
2023-04-08T13:27:48.117Z,12.30
2023-04-08T13:30:15.504Z,15.97
2023-04-08T13:32:42.225Z,12.53
2023-04-08T13:35:09.319Z,13.20
2023-04-08T13:37:36.759Z,13.43
2023-04-08T13:40:04.022Z,11.77
2023-04-08T13:42:34.166Z,10.67
2023-04-08T13:45:01.356Z,8.53
2023-04-08T13:47:28.098Z,6.87
2023-04-08T13:49:54.798Z,7.70
2023-04-08T13:52:21.857Z,6.43
2023-04-08T13:54:48.970Z,6.80
2023-04-08T13:57:16.164Z,6.50
2023-04-08T13:59:44.549Z,6.53
2023-04-08T14:02:12.902Z,7.00
2023-04-08T14:04:40.163Z,6.57
2023-04-08T14:07:07.077Z,7.80
2023-04-08T14:09:33.929Z,6.83
2023-04-08T14:12:00.654Z,6.37
2023-04-08T14:14:27.356Z,6.30
2023-04-08T14:16:54.241Z,6.50
2023-04-08T14:19:21.245Z,7.33
2023-04-08T14:21:47.943Z,6.57
2023-04-08T14:24:15.471Z,6.97
2023-04-08T14:26:42.332Z,7.20
2023-04-08T14:29:09.040Z,6.60
2023-04-08T14:31:36.506Z,7.47
2023-04-08T14:34:03.726Z,6.50
2023-04-08T14:36:31.634Z,6.23
2023-04-08T14:38:58.890Z,6.03
2023-04-08T14:41:28.264Z,5.80
2023-04-08T14:43:55.506Z,7.03
2023-04-08T14:46:22.386Z,6.30
2023-04-08T14:48:49.474Z,7.00
2023-04-08T14:51:16.553Z,6.10
2023-04-08T14:53:43.345Z,5.77
2023-04-08T14:56:11.205Z,6.10
2023-04-08T14:58:38.374Z,7.00
2023-04-08T15:01:05.596Z,6.37
2023-04-08T15:03:32.781Z,5.50
2023-04-08T15:05:59.876Z,6.03
2023-04-08T15:08:27.051Z,7.07
2023-04-08T15:10:53.882Z,7.40
2023-04-08T15:13:20.628Z,6.50
2023-04-08T15:15:47.426Z,6.87
2023-04-08T15:18:14.538Z,6.33
2023-04-08T15:20:41.846Z,6.03
2023-04-08T15:23:08.655Z,6.63
2023-04-08T15:25:35.797Z,7.20
2023-04-08T15:28:02.771Z,7.83
2023-04-08T15:30:35.024Z,7.57
2023-04-08T15:33:05.080Z,7.43
2023-04-08T15:35:33.121Z,7.57
2023-04-08T15:38:00.814Z,8.90
2023-04-08T15:40:27.817Z,10.70
2023-04-08T15:42:54.999Z,11.30
2023-04-08T15:45:22.254Z,12.73
2023-04-08T15:47:49.086Z,13.10
2023-04-08T15:50:17.240Z,15.13
2023-04-08T15:52:44.482Z,17.53
2023-04-08T15:55:11.268Z,17.97
2023-04-08T15:57:38.008Z,16.97
2023-04-08T16:00:11.516Z,16.00
2023-04-08T16:02:38.543Z,16.37
2023-04-08T16:05:05.869Z,15.97
2023-04-08T16:07:32.930Z,16.40
2023-04-08T16:09:59.789Z,16.40
2023-04-08T16:12:26.540Z,11.40
2023-04-08T16:14:53.260Z,9.47
2023-04-08T16:17:20.864Z,9.10
2023-04-08T16:19:47.983Z,9.17
2023-04-08T16:22:15.338Z,9.00
2023-04-08T16:24:42.418Z,9.37
2023-04-08T16:27:09.228Z,10.07
2023-04-08T16:29:36.306Z,9.90
2023-04-08T16:32:03.764Z,9.73
2023-04-08T16:34:30.881Z,9.87
2023-04-08T16:36:57.604Z,9.37
2023-04-08T16:39:24.769Z,9.50
2023-04-08T16:41:51.445Z,11.93
2023-04-08T16:44:18.185Z,11.80
2023-04-08T16:46:45.431Z,14.20
2023-04-08T16:49:14.493Z,13.90
2023-04-08T16:51:42.289Z,13.00
2023-04-08T16:54:09.353Z,15.10
2023-04-08T16:56:36.209Z,12.80
2023-04-08T16:59:03.325Z,11.70
2023-04-08T17:01:30.508Z,12.60
2023-04-08T17:03:57.880Z,12.97
2023-04-08T17:06:24.702Z,13.60
2023-04-08T17:08:51.788Z,13.03
2023-04-08T17:11:18.810Z,13.57
2023-04-08T17:13:46.286Z,14.00
2023-04-08T17:16:17.894Z,13.90
2023-04-08T17:18:45.148Z,13.23
2023-04-08T17:21:14.043Z,14.47
2023-04-08T17:23:40.859Z,15.37
2023-04-08T17:26:08.741Z,15.53
2023-04-08T17:28:35.752Z,16.27
2023-04-08T17:31:02.993Z,16.10
2023-04-08T17:33:29.745Z,15.80
2023-04-08T17:35:56.507Z,16.27
2023-04-08T17:38:23.677Z,14.87
2023-04-08T17:40:50.910Z,15.93
2023-04-08T17:45:45.929Z,15.20
2023-04-08T17:48:12.805Z,15.93
2023-04-08T17:50:39.521Z,16.00
2023-04-08T17:53:06.757Z,20.37
2023-04-08T17:55:33.605Z,18.57
2023-04-08T17:58:00.432Z,21.10
2023-04-08T18:00:27.561Z,19.70
2023-04-08T18:02:54.517Z,18.97
2023-04-08T18:05:21.877Z,24.20
2023-04-08T18:07:48.805Z,29.37
2023-04-08T18:10:16.086Z,31.23
2023-04-08T18:12:42.867Z,26.67
2023-04-08T18:15:10.113Z,31.20
2023-04-08T18:17:37.026Z,30.07
2023-04-08T18:20:04.268Z,30.67
2023-04-08T18:22:31.159Z,32.90
2023-04-08T18:24:57.856Z,34.17
2023-04-08T18:27:24.615Z,36.73
2023-04-08T18:29:53.400Z,38.10
2023-04-08T18:32:20.288Z,37.03
2023-04-08T18:34:47.282Z,40.67
2023-04-08T18:37:17.001Z,21.17
2023-04-08T18:39:43.752Z,20.37
2023-04-08T18:42:10.578Z,20.10
2023-04-08T18:44:37.602Z,19.00
2023-04-08T18:47:04.636Z,17.87
2023-04-08T18:49:33.907Z,16.23
2023-04-08T18:52:02.993Z,16.60
2023-04-08T18:54:30.762Z,16.40
2023-04-08T18:56:58.130Z,18.17
2023-04-08T18:59:25.058Z,17.37
2023-04-08T19:01:51.956Z,16.40
2023-04-08T19:04:19.148Z,16.00
2023-04-08T19:06:45.938Z,17.17
2023-04-08T19:09:14.390Z,16.80
2023-04-08T19:11:41.552Z,16.83
2023-04-08T19:14:08.471Z,16.70
2023-04-08T19:16:35.364Z,17.13
2023-04-08T19:19:02.346Z,17.23
2023-04-08T19:21:31.224Z,17.27
2023-04-08T19:23:58.009Z,18.27
2023-04-08T19:26:24.862Z,17.73
2023-04-08T19:28:51.726Z,18.67
2023-04-08T19:31:20.166Z,18.87
2023-04-08T19:33:47.005Z,19.13
2023-04-08T19:36:13.936Z,19.37
2023-04-08T19:38:40.913Z,19.80
2023-04-08T19:41:07.643Z,19.70
2023-04-08T19:43:34.527Z,19.67
2023-04-08T19:46:02.471Z,20.53
2023-04-08T19:48:29.237Z,20.70
2023-04-08T19:50:56.274Z,20.40
2023-04-08T19:53:23.035Z,23.73
2023-04-08T19:55:50.033Z,21.07
2023-04-08T19:58:16.878Z,20.57
2023-04-08T20:00:43.752Z,20.63
2023-04-08T20:03:10.779Z,18.37
2023-04-08T20:05:37.989Z,20.57
2023-04-08T20:08:04.929Z,21.23
2023-04-08T20:10:31.713Z,21.03
2023-04-08T20:12:58.688Z,19.93
2023-04-08T20:15:25.667Z,20.97
2023-04-08T20:17:53.284Z,21.60
2023-04-08T20:20:20.488Z,23.37
2023-04-08T20:22:47.189Z,24.30
2023-04-08T20:25:13.931Z,26.40
2023-04-08T20:27:41.438Z,24.77
2023-04-08T20:30:09.301Z,24.07
2023-04-08T20:32:36.379Z,23.77
2023-04-08T20:35:04.714Z,22.07
2023-04-08T20:37:33.269Z,21.53
2023-04-08T20:40:00.147Z,20.53
2023-04-08T20:42:27.023Z,21.43
2023-04-08T20:44:53.836Z,21.63
2023-04-08T20:47:20.942Z,22.80
2023-04-08T20:49:48.169Z,21.50
2023-04-08T20:52:14.857Z,21.93
2023-04-08T20:54:41.724Z,21.67
2023-04-08T20:57:08.466Z,21.80
2023-04-08T20:59:35.497Z,22.33
2023-04-08T21:02:02.443Z,23.10
2023-04-08T21:04:29.325Z,23.47
2023-04-08T21:06:56.115Z,22.87
2023-04-08T21:09:22.912Z,23.07
2023-04-08T21:11:49.689Z,21.63
2023-04-08T21:14:16.571Z,21.90
2023-04-08T21:16:43.564Z,22.53
2023-04-08T21:19:10.525Z,21.23
2023-04-08T21:21:37.401Z,20.77
2023-04-08T21:24:06.857Z,21.00
2023-04-08T21:26:33.647Z,21.13
2023-04-08T21:29:00.592Z,20.17
2023-04-08T21:31:27.415Z,21.30
2023-04-08T21:33:54.479Z,20.57
2023-04-08T21:36:21.402Z,20.77
2023-04-08T21:38:48.136Z,20.30
2023-04-08T21:41:14.799Z,22.17
2023-04-08T21:43:41.705Z,23.33
2023-04-08T21:46:08.671Z,22.17
2023-04-08T21:48:35.441Z,21.00
2023-04-08T21:51:02.147Z,21.03
2023-04-08T21:53:28.816Z,22.27
2023-04-08T21:55:55.630Z,20.23
2023-04-08T21:58:22.371Z,20.77
2023-04-08T22:00:50.546Z,21.30
2023-04-08T22:03:17.459Z,20.90
2023-04-08T22:05:44.222Z,20.57
2023-04-08T22:08:11.521Z,21.73
2023-04-08T22:10:38.167Z,21.30
2023-04-08T22:13:04.893Z,21.37
2023-04-08T22:15:31.579Z,24.80
2023-04-08T22:17:58.837Z,22.67
2023-04-08T22:20:25.771Z,24.17
2023-04-08T22:22:53.339Z,24.17
2023-04-08T22:25:20.171Z,23.30
2023-04-08T22:27:46.824Z,23.87
2023-04-08T22:30:13.814Z,23.07
2023-04-08T22:32:40.538Z,22.47
2023-04-08T22:35:07.609Z,24.47
2023-04-08T22:37:34.354Z,24.20
2023-04-08T22:40:01.080Z,23.10
2023-04-08T22:42:27.965Z,24.43
2023-04-08T22:44:54.663Z,22.10
2023-04-08T22:47:21.515Z,24.70
2023-04-08T22:49:48.180Z,23.90
2023-04-08T22:52:14.904Z,24.30
2023-04-08T22:54:41.649Z,25.20
2023-04-08T22:57:08.300Z,24.00
2023-04-08T22:59:34.942Z,24.03
2023-04-08T23:02:02.015Z,23.17
2023-04-08T23:04:28.842Z,23.17
2023-04-08T23:06:55.544Z,22.80
2023-04-08T23:09:24.415Z,24.93
2023-04-08T23:11:51.077Z,24.47
2023-04-08T23:14:17.713Z,25.67
2023-04-08T23:16:44.418Z,25.10
2023-04-08T23:19:11.554Z,24.07
2023-04-08T23:21:38.286Z,24.43
2023-04-08T23:24:05.393Z,24.80
2023-04-08T23:26:32.234Z,24.93
2023-04-08T23:28:59.171Z,24.07
2023-04-08T23:31:25.958Z,25.07
2023-04-08T23:33:52.677Z,23.73
2023-04-08T23:36:19.374Z,24.53
2023-04-08T23:38:46.201Z,25.23
2023-04-08T23:41:12.906Z,24.43
2023-04-08T23:43:39.644Z,23.67
2023-04-08T23:46:06.370Z,24.90
2023-04-08T23:48:33.117Z,24.20
2023-04-08T23:50:59.889Z,23.97
2023-04-08T23:53:26.797Z,24.50
2023-04-08T23:55:53.597Z,23.13
2023-04-08T23:58:20.368Z,24.87
